createdAt,value
2023-03-27T00:00:42.377Z,72.74
2023-03-27T00:03:23.883Z,73.01
2023-03-27T00:06:04.414Z,73.09
2023-03-27T00:08:36.021Z,73.37
2023-03-27T00:11:06.320Z,72.70
2023-03-27T00:13:49.032Z,72.92
2023-03-27T00:16:23.700Z,72.94
2023-03-27T00:18:53.559Z,72.69
2023-03-27T00:21:22.668Z,72.59
2023-03-27T00:23:54.517Z,72.08
2023-03-27T00:26:25.687Z,71.75
2023-03-27T00:28:59.693Z,71.98
2023-03-27T00:31:31.286Z,72.18
2023-03-27T00:33:59.937Z,72.20
2023-03-27T00:36:31.627Z,72.40
2023-03-27T00:39:00.263Z,72.55
2023-03-27T00:41:34.123Z,72.99
2023-03-27T00:44:04.306Z,72.61
2023-03-27T00:46:45.789Z,72.09
2023-03-27T00:49:17.260Z,72.47
2023-03-27T00:51:53.406Z,72.69
2023-03-27T00:54:33.817Z,72.35
2023-03-27T00:57:06.238Z,72.30
2023-03-27T00:59:39.309Z,72.30
2023-03-27T01:02:09.243Z,71.77
2023-03-27T01:04:41.906Z,71.80
2023-03-27T01:07:16.216Z,71.94
2023-03-27T01:09:47.843Z,72.27
2023-03-27T01:12:45.513Z,71.51
2023-03-27T01:15:35.484Z,70.78
2023-03-27T01:18:29.230Z,71.03
2023-03-27T01:21:17.933Z,70.59
2023-03-27T01:24:14.971Z,70.34
2023-03-27T01:27:04.239Z,70.16
2023-03-27T01:29:58.902Z,70.09
2023-03-27T01:32:27.482Z,70.05
2023-03-27T01:35:11.172Z,70.02
2023-03-27T01:38:16.060Z,69.87
2023-03-27T01:41:05.906Z,69.70
2023-03-27T01:43:46.885Z,69.50
2023-03-27T01:46:35.924Z,69.62
2023-03-27T01:49:30.164Z,69.62
2023-03-27T01:52:03.987Z,69.53
2023-03-27T01:54:58.529Z,69.14
2023-03-27T01:57:34.688Z,68.92
2023-03-27T02:00:28.448Z,68.73
2023-03-27T02:03:29.418Z,68.12
2023-03-27T02:06:08.856Z,67.73
2023-03-27T02:08:47.061Z,67.08
2023-03-27T02:11:19.080Z,66.58
2023-03-27T02:13:52.516Z,66.20
2023-03-27T02:16:30.727Z,65.70
2023-03-27T02:19:03.443Z,65.59
2023-03-27T02:21:38.439Z,64.94
2023-03-27T02:24:09.140Z,64.58
2023-03-27T02:26:40.616Z,64.31
2023-03-27T02:29:27.621Z,64.15
2023-03-27T02:32:21.087Z,63.71
2023-03-27T02:35:03.970Z,63.26
2023-03-27T02:37:38.402Z,63.42
2023-03-27T02:40:46.935Z,63.21
2023-03-27T02:43:48.900Z,63.25
2023-03-27T02:46:40.395Z,63.34
2023-03-27T02:49:22.239Z,63.22
2023-03-27T02:52:01.259Z,63.13
2023-03-27T02:54:36.226Z,63.01
2023-03-27T02:57:11.907Z,63.21
2023-03-27T03:00:24.309Z,63.35
2023-03-27T03:03:08.294Z,63.71
2023-03-27T03:05:41.431Z,63.89
2023-03-27T03:08:10.429Z,64.10
2023-03-27T03:10:46.337Z,64.79
2023-03-27T03:13:16.332Z,64.68
2023-03-27T03:15:46.871Z,64.39
2023-03-27T03:18:16.586Z,64.45
2023-03-27T03:20:46.104Z,64.63
2023-03-27T03:23:15.007Z,64.54
2023-03-27T03:25:45.859Z,64.71
2023-03-27T03:28:18.420Z,64.52
2023-03-27T03:30:50.742Z,64.37
2023-03-27T03:33:20.742Z,64.29
2023-03-27T03:35:50.743Z,64.27
2023-03-27T03:38:42.183Z,64.21
2023-03-27T03:41:15.061Z,64.29
2023-03-27T03:43:43.600Z,64.39
2023-03-27T03:46:12.350Z,64.35
2023-03-27T03:48:42.542Z,64.37
2023-03-27T03:51:12.090Z,64.56
2023-03-27T03:53:43.820Z,64.84
2023-03-27T03:56:12.534Z,64.91
2023-03-27T03:58:41.293Z,65.06
2023-03-27T04:01:10.479Z,65.02
2023-03-27T04:03:48.444Z,64.97
2023-03-27T04:06:21.206Z,64.92
2023-03-27T04:08:50.211Z,64.89
2023-03-27T04:11:41.826Z,65.08
2023-03-27T04:14:26.133Z,64.98
2023-03-27T04:16:59.428Z,64.99
2023-03-27T04:19:33.925Z,64.99
2023-03-27T04:22:07.163Z,64.93
2023-03-27T04:24:37.485Z,64.83
2023-03-27T04:27:06.114Z,64.68
2023-03-27T04:29:42.688Z,64.67
2023-03-27T04:32:30.422Z,64.86
2023-03-27T04:35:36.260Z,65.06
2023-03-27T04:38:15.643Z,65.35
2023-03-27T04:40:49.839Z,65.59
2023-03-27T04:43:26.337Z,65.76
2023-03-27T04:45:57.517Z,65.60
2023-03-27T04:48:30.900Z,65.53
2023-03-27T04:51:03.394Z,65.27
2023-03-27T04:53:37.947Z,65.18
2023-03-27T04:56:07.465Z,65.46
2023-03-27T04:58:38.057Z,65.30
2023-03-27T05:01:12.706Z,65.21
2023-03-27T05:04:03.962Z,65.24
2023-03-27T05:06:49.966Z,65.37
2023-03-27T05:09:19.312Z,65.60
2023-03-27T05:11:51.690Z,65.46
2023-03-27T05:14:22.603Z,65.66
2023-03-27T05:16:58.925Z,65.47
2023-03-27T05:19:27.719Z,65.41
2023-03-27T05:22:01.317Z,65.45
2023-03-27T05:24:34.834Z,65.38
2023-03-27T05:27:06.859Z,65.14
2023-03-27T05:29:46.846Z,64.95
2023-03-27T05:32:16.749Z,64.47
2023-03-27T05:34:54.869Z,64.35
2023-03-27T05:37:31.687Z,64.57
2023-03-27T05:40:15.746Z,64.51
2023-03-27T05:42:45.603Z,64.52
2023-03-27T05:45:14.635Z,64.38
2023-03-27T05:47:52.205Z,64.29
2023-03-27T05:50:23.978Z,64.12
2023-03-27T05:52:58.858Z,63.99
2023-03-27T05:55:34.512Z,64.03
2023-03-27T05:58:03.615Z,63.82
2023-03-27T06:00:36.529Z,63.74
2023-03-27T06:03:05.343Z,63.61
2023-03-27T06:05:55.236Z,63.57
2023-03-27T06:08:29.418Z,63.47
2023-03-27T06:11:10.818Z,63.30
2023-03-27T06:13:49.637Z,63.18
2023-03-27T06:16:21.990Z,63.04
2023-03-27T06:19:10.796Z,62.90
2023-03-27T06:21:48.411Z,62.76
2023-03-27T06:24:17.057Z,62.71
2023-03-27T06:26:46.325Z,62.63
2023-03-27T06:29:15.019Z,62.66
2023-03-27T06:31:48.545Z,62.88
2023-03-27T06:34:25.384Z,62.88
2023-03-27T06:37:00.037Z,62.85
2023-03-27T06:39:34.625Z,62.78
2023-03-27T06:42:03.850Z,62.81
2023-03-27T06:44:36.574Z,62.96
2023-03-27T06:47:23.183Z,62.84
2023-03-27T06:50:10.711Z,62.89
2023-03-27T06:52:39.320Z,62.79
2023-03-27T06:55:34.951Z,62.73
2023-03-27T06:58:04.175Z,62.77
2023-03-27T07:00:37.510Z,62.73
2023-03-27T07:03:23.426Z,62.61
2023-03-27T07:06:19.591Z,62.65
2023-03-27T07:09:01.421Z,62.62
2023-03-27T07:11:32.182Z,62.32
2023-03-27T07:14:04.452Z,62.18
2023-03-27T07:16:33.373Z,62.06
2023-03-27T07:19:05.724Z,61.90
2023-03-27T07:21:34.919Z,61.76
2023-03-27T07:24:03.806Z,61.60
2023-03-27T07:26:34.646Z,61.30
2023-03-27T07:29:26.129Z,61.30
2023-03-27T07:31:59.701Z,61.16
2023-03-27T07:34:36.031Z,61.05
2023-03-27T07:37:07.484Z,60.88
2023-03-27T07:39:38.917Z,60.33
2023-03-27T07:42:08.924Z,60.37
2023-03-27T07:44:52.157Z,60.56
2023-03-27T07:47:21.050Z,60.69
2023-03-27T07:49:49.460Z,60.64
2023-03-27T07:52:22.039Z,60.48
2023-03-27T07:54:57.207Z,61.49
2023-03-27T07:57:33.179Z,63.51
2023-03-27T08:03:36.984Z,65.86
2023-03-27T08:06:08.956Z,64.47
2023-03-27T08:08:37.647Z,63.02
2023-03-27T08:11:13.494Z,62.19
2023-03-27T08:13:48.675Z,63.10
2023-03-27T08:16:18.997Z,64.46
2023-03-27T08:18:49.888Z,63.96
2023-03-27T08:21:19.134Z,63.72
2023-03-27T08:23:50.855Z,62.55
2023-03-27T08:26:35.249Z,62.78
2023-03-27T08:29:08.508Z,63.13
2023-03-27T08:31:38.236Z,62.82
2023-03-27T08:34:07.077Z,63.53
2023-03-27T08:36:52.882Z,61.79
2023-03-27T08:39:24.972Z,61.36
2023-03-27T08:41:58.359Z,61.04
2023-03-27T08:44:34.804Z,60.94
2023-03-27T08:47:17.109Z,61.05
2023-03-27T08:49:58.006Z,60.23
2023-03-27T08:52:47.151Z,59.87
2023-03-27T08:55:37.602Z,60.29
2023-03-27T08:58:20.147Z,60.49
2023-03-27T09:01:01.450Z,60.28
2023-03-27T09:03:41.165Z,60.43
2023-03-27T09:06:15.529Z,59.77
2023-03-27T09:08:54.431Z,59.60
2023-03-27T09:11:41.583Z,59.47
2023-03-27T09:14:37.640Z,59.80
2023-03-27T09:17:28.079Z,59.52
2023-03-27T09:20:32.504Z,59.65
2023-03-27T09:23:11.112Z,60.28
2023-03-27T09:26:12.911Z,60.47
2023-03-27T09:29:09.254Z,61.32
2023-03-27T09:31:50.755Z,60.00
2023-03-27T09:34:25.542Z,58.76
2023-03-27T09:36:56.156Z,59.11
2023-03-27T09:39:32.332Z,59.41
2023-03-27T09:42:29.048Z,59.96
2023-03-27T09:45:02.158Z,59.16
2023-03-27T09:47:45.733Z,59.28
2023-03-27T09:50:35.252Z,59.36
2023-03-27T09:53:24.112Z,59.32
2023-03-27T09:56:07.461Z,58.43
2023-03-27T09:58:44.305Z,58.02
2023-03-27T10:01:28.165Z,58.03
2023-03-27T10:04:01.953Z,57.67
2023-03-27T10:06:43.440Z,57.45
2023-03-27T10:09:25.141Z,58.01
2023-03-27T10:12:05.002Z,57.79
2023-03-27T10:14:44.517Z,57.73
2023-03-27T10:17:26.522Z,58.04
2023-03-27T10:20:16.786Z,58.41
2023-03-27T10:23:01.027Z,58.37
2023-03-27T10:25:38.153Z,57.98
2023-03-27T10:28:34.805Z,57.73
2023-03-27T10:31:32.601Z,57.64
2023-03-27T10:34:34.838Z,57.48
2023-03-27T10:37:34.480Z,57.32
2023-03-27T10:40:36.621Z,57.29
2023-03-27T10:43:18.627Z,57.38
2023-03-27T10:45:53.578Z,56.26
2023-03-27T10:49:04.212Z,56.20
2023-03-27T10:51:49.625Z,56.00
2023-03-27T10:55:02.712Z,55.78
2023-03-27T10:57:37.961Z,56.00
2023-03-27T11:00:18.809Z,54.59
2023-03-27T11:02:59.726Z,54.52
2023-03-27T11:05:36.896Z,54.25
2023-03-27T11:08:20.636Z,54.13
2023-03-27T11:10:54.237Z,53.31
2023-03-27T11:13:38.718Z,53.34
2023-03-27T11:16:24.104Z,53.23
2023-03-27T11:19:59.124Z,52.88
2023-03-27T11:22:52.887Z,52.30
2023-03-27T11:25:43.471Z,51.90
2023-03-27T11:28:28.842Z,53.04
2023-03-27T11:31:38.442Z,52.96
2023-03-27T11:34:15.572Z,52.56
2023-03-27T11:37:30.086Z,51.64
2023-03-27T11:40:09.691Z,50.42
2023-03-27T11:42:43.707Z,50.39
2023-03-27T11:45:19.449Z,50.28
2023-03-27T11:47:52.192Z,50.16
2023-03-27T11:50:24.183Z,49.71
2023-03-27T11:52:52.762Z,49.28
2023-03-27T11:55:38.051Z,48.96
2023-03-27T11:58:30.900Z,48.28
2023-03-27T12:01:17.996Z,49.05
2023-03-27T12:04:24.307Z,48.23
2023-03-27T12:07:09.858Z,48.15
2023-03-27T12:10:02.775Z,48.67
2023-03-27T12:13:24.317Z,48.13
2023-03-27T12:16:15.170Z,48.04
2023-03-27T12:19:02.501Z,48.88
2023-03-27T12:21:55.843Z,49.01
2023-03-27T12:24:36.353Z,49.14
2023-03-27T12:27:45.349Z,49.31
2023-03-27T12:31:04.293Z,49.56
2023-03-27T12:33:45.233Z,50.32
2023-03-27T12:36:21.211Z,50.60
2023-03-27T12:38:53.193Z,50.62
2023-03-27T12:41:37.756Z,50.67
2023-03-27T12:44:31.280Z,50.78
2023-03-27T12:47:33.214Z,50.97
2023-03-27T12:50:28.404Z,51.04
2023-03-27T12:52:57.913Z,51.53
2023-03-27T12:55:36.441Z,51.55
2023-03-27T12:58:05.905Z,51.66
2023-03-27T13:01:00.560Z,51.59
2023-03-27T13:03:56.001Z,51.33
2023-03-27T13:06:47.529Z,51.65
2023-03-27T13:09:33.537Z,51.43
2023-03-27T13:12:50.179Z,51.49
2023-03-27T13:15:22.108Z,51.63
2023-03-27T13:18:00.853Z,51.68
2023-03-27T13:20:35.466Z,51.47
2023-03-27T13:23:10.376Z,50.75
2023-03-27T13:26:06.761Z,51.06
2023-03-27T13:28:42.998Z,51.50
2023-03-27T13:31:41.547Z,51.46
2023-03-27T13:34:42.172Z,51.42
2023-03-27T13:37:15.383Z,51.54
2023-03-27T13:39:59.528Z,51.12
2023-03-27T13:42:34.158Z,50.49
2023-03-27T13:45:18.934Z,50.11
2023-03-27T13:48:17.834Z,50.47
2023-03-27T13:51:17.933Z,50.52
2023-03-27T13:54:05.463Z,50.40
2023-03-27T13:56:50.631Z,50.35
2023-03-27T13:59:48.607Z,50.52
2023-03-27T14:02:51.998Z,50.69
2023-03-27T14:05:49.672Z,50.68
2023-03-27T14:08:21.304Z,50.49
2023-03-27T14:11:23.090Z,50.46
2023-03-27T14:14:12.258Z,50.97
2023-03-27T14:17:15.220Z,50.44
2023-03-27T14:20:01.561Z,50.13
2023-03-27T14:22:43.484Z,49.54
2023-03-27T14:25:20.074Z,49.63
2023-03-27T14:28:01.724Z,49.21
2023-03-27T14:30:42.798Z,49.41
2023-03-27T14:34:10.133Z,48.77
2023-03-27T14:36:42.602Z,49.38
2023-03-27T14:39:24.156Z,49.30
2023-03-27T14:42:00.670Z,48.94
2023-03-27T14:44:33.560Z,48.97
2023-03-27T14:47:12.197Z,48.81
2023-03-27T14:49:47.627Z,48.77
2023-03-27T14:52:27.151Z,48.31
2023-03-27T14:55:19.605Z,48.04
2023-03-27T14:57:57.412Z,47.99
2023-03-27T15:00:33.703Z,47.88
2023-03-27T15:03:24.739Z,48.08
2023-03-27T15:05:58.873Z,48.72
2023-03-27T15:08:37.261Z,48.46
2023-03-27T15:11:22.066Z,47.64
2023-03-27T15:17:23.919Z,47.99
2023-03-27T15:20:05.036Z,48.12
2023-03-27T15:22:42.259Z,48.12
2023-03-27T15:25:18.061Z,48.24
2023-03-27T15:27:53.606Z,48.19
2023-03-27T15:30:29.375Z,48.42
2023-03-27T15:33:02.356Z,48.45
2023-03-27T15:35:42.873Z,48.76
2023-03-27T15:38:17.407Z,49.09
2023-03-27T15:40:46.895Z,49.28
2023-03-27T15:43:16.478Z,49.43
2023-03-27T15:45:57.658Z,49.63
2023-03-27T15:48:40.573Z,50.10
2023-03-27T15:51:16.206Z,52.32
2023-03-27T15:53:50.118Z,53.98
2023-03-27T15:56:26.597Z,55.91
2023-03-27T15:59:02.263Z,57.22
2023-03-27T16:01:36.407Z,57.58
2023-03-27T16:04:20.711Z,57.89
2023-03-27T16:06:52.576Z,59.90
2023-03-27T16:09:26.036Z,60.19
2023-03-27T16:11:56.663Z,62.85
2023-03-27T16:14:41.025Z,62.34
2023-03-27T16:17:14.975Z,63.01
2023-03-27T16:19:53.139Z,63.93
2023-03-27T16:22:24.441Z,63.44
2023-03-27T16:24:54.593Z,63.63
2023-03-27T16:27:32.089Z,63.73
2023-03-27T16:30:00.780Z,64.41
2023-03-27T16:32:30.342Z,63.93
2023-03-27T16:34:59.179Z,64.27
2023-03-27T16:37:28.275Z,64.13
2023-03-27T16:39:59.457Z,64.58
2023-03-27T16:42:28.128Z,64.61
2023-03-27T16:44:56.684Z,64.22
2023-03-27T16:47:25.661Z,64.38
2023-03-27T16:50:10.423Z,65.81
2023-03-27T16:52:40.273Z,65.32
2023-03-27T16:55:14.041Z,64.82
2023-03-27T16:57:43.157Z,65.04
2023-03-27T17:00:13.593Z,64.74
2023-03-27T17:02:44.795Z,65.23
2023-03-27T17:05:14.657Z,65.39
2023-03-27T17:07:46.725Z,65.44
2023-03-27T17:10:16.008Z,65.65
2023-03-27T17:12:44.792Z,66.39
2023-03-27T17:15:15.264Z,66.14
2023-03-27T17:17:45.258Z,66.82
2023-03-27T17:20:14.242Z,67.36
2023-03-27T17:22:42.863Z,66.86
2023-03-27T17:25:11.799Z,66.51
2023-03-27T17:27:42.608Z,66.01
2023-03-27T17:30:12.139Z,66.94
2023-03-27T17:32:40.968Z,66.52
2023-03-27T17:35:10.682Z,65.75
2023-03-27T17:37:39.774Z,65.50
2023-03-27T17:40:12.670Z,65.42
2023-03-27T17:42:41.463Z,65.70
2023-03-27T17:45:10.555Z,65.40
2023-03-27T17:47:39.072Z,65.36
2023-03-27T17:50:08.340Z,65.52
2023-03-27T17:52:36.956Z,65.31
2023-03-27T17:55:08.243Z,65.37
2023-03-27T17:57:39.852Z,65.22
2023-03-27T18:00:12.192Z,65.66
2023-03-27T18:02:44.236Z,65.77
2023-03-27T18:05:15.827Z,65.54
2023-03-27T18:07:44.647Z,65.55
2023-03-27T18:10:17.432Z,65.57
2023-03-27T18:12:46.452Z,65.55
2023-03-27T18:15:15.146Z,65.58
2023-03-27T18:17:47.501Z,66.01
2023-03-27T18:20:16.226Z,66.22
2023-03-27T18:22:53.180Z,67.28
2023-03-27T18:25:21.649Z,67.69
2023-03-27T18:27:52.364Z,67.60
2023-03-27T18:30:21.100Z,67.58
2023-03-27T18:32:49.871Z,68.06
2023-03-27T18:35:23.131Z,67.91
2023-03-27T18:37:53.983Z,67.85
2023-03-27T18:40:24.977Z,68.16
2023-03-27T18:42:53.772Z,68.60
2023-03-27T18:45:22.992Z,69.23
2023-03-27T18:47:51.602Z,69.26
2023-03-27T18:50:20.655Z,69.59
2023-03-27T18:52:49.229Z,70.56
2023-03-27T18:55:21.224Z,71.34
2023-03-27T18:57:50.036Z,71.25
2023-03-27T19:00:20.561Z,71.14
2023-03-27T19:02:52.380Z,70.69
2023-03-27T19:05:21.211Z,70.56
2023-03-27T19:07:49.935Z,70.52
2023-03-27T19:10:18.537Z,71.93
2023-03-27T19:12:59.445Z,73.30
2023-03-27T19:16:14.311Z,73.00
2023-03-27T19:19:07.063Z,73.71
2023-03-27T19:21:50.544Z,75.92
2023-03-27T19:24:25.798Z,76.12
2023-03-27T19:26:54.446Z,77.92
2023-03-27T19:29:22.998Z,78.75
2023-03-27T19:31:58.852Z,78.86
2023-03-27T19:34:40.387Z,79.10
2023-03-27T19:37:11.746Z,79.42
2023-03-27T19:39:40.455Z,78.86
2023-03-27T19:42:09.013Z,79.18
2023-03-27T19:44:38.915Z,79.44
2023-03-27T19:47:07.930Z,80.44
2023-03-27T19:49:37.577Z,80.76
2023-03-27T19:52:21.038Z,80.90
2023-03-27T19:54:49.591Z,81.81
2023-03-27T19:57:18.318Z,80.84
2023-03-27T19:59:47.155Z,81.01
2023-03-27T20:02:17.511Z,81.00
2023-03-27T20:04:48.943Z,80.88
2023-03-27T20:07:17.539Z,80.44
2023-03-27T20:09:46.403Z,80.41
2023-03-27T20:12:14.979Z,80.22
2023-03-27T20:14:46.520Z,79.76
2023-03-27T20:17:27.976Z,80.05
2023-03-27T20:20:00.982Z,79.92
2023-03-27T20:22:29.791Z,80.02
2023-03-27T20:24:58.827Z,79.99
2023-03-27T20:27:30.857Z,78.10
2023-03-27T20:30:02.256Z,76.59
2023-03-27T20:32:31.485Z,74.48
2023-03-27T20:35:05.205Z,74.19
2023-03-27T20:37:42.347Z,74.10
2023-03-27T20:40:20.892Z,73.89
2023-03-27T20:42:54.381Z,73.46
2023-03-27T20:45:26.960Z,73.06
2023-03-27T20:48:03.426Z,72.86
2023-03-27T20:50:35.487Z,73.02
2023-03-27T20:53:04.762Z,73.45
2023-03-27T20:55:37.343Z,73.85
2023-03-27T20:58:10.196Z,74.55
2023-03-27T21:00:39.155Z,74.97
2023-03-27T21:03:12.231Z,75.31
2023-03-27T21:05:41.473Z,76.07
2023-03-27T21:08:10.220Z,77.14
2023-03-27T21:10:39.034Z,78.65
2023-03-27T21:13:08.304Z,79.21
2023-03-27T21:15:39.067Z,79.12
2023-03-27T21:18:07.717Z,79.78
2023-03-27T21:20:36.261Z,80.23
2023-03-27T21:23:07.950Z,80.75
2023-03-27T21:25:36.550Z,81.13
2023-03-27T21:28:07.217Z,80.98
2023-03-27T21:30:46.649Z,81.15
2023-03-27T21:33:17.365Z,80.91
2023-03-27T21:35:47.800Z,81.60
2023-03-27T21:38:18.142Z,82.11
2023-03-27T21:40:47.670Z,81.94
2023-03-27T21:43:16.363Z,81.86
2023-03-27T21:45:46.939Z,83.02
2023-03-27T21:48:15.805Z,83.45
2023-03-27T21:50:44.760Z,83.38
2023-03-27T21:53:13.855Z,83.39
2023-03-27T21:55:42.709Z,84.36
2023-03-27T21:58:11.302Z,85.60
2023-03-27T22:00:40.359Z,85.87
2023-03-27T22:03:09.032Z,85.51
2023-03-27T22:05:38.756Z,85.34
2023-03-27T22:08:10.554Z,85.68
2023-03-27T22:10:39.029Z,86.19
2023-03-27T22:13:07.593Z,86.61
2023-03-27T22:15:36.491Z,86.97
2023-03-27T22:18:05.089Z,86.89
2023-03-27T22:20:33.703Z,87.01
2023-03-27T22:23:07.771Z,87.30
2023-03-27T22:25:36.717Z,87.64
2023-03-27T22:28:05.454Z,87.66
2023-03-27T22:30:37.037Z,87.68
2023-03-27T22:33:05.672Z,87.60
2023-03-27T22:35:34.314Z,87.71
2023-03-27T22:38:06.167Z,87.87
2023-03-27T22:40:37.765Z,88.52
2023-03-27T22:43:06.427Z,88.75
2023-03-27T22:45:38.173Z,88.71
2023-03-27T22:48:08.901Z,88.72
2023-03-27T22:50:37.573Z,88.91
2023-03-27T22:53:06.072Z,89.34
2023-03-27T22:55:40.936Z,89.32
2023-03-27T22:58:09.526Z,90.01
2023-03-27T23:00:41.640Z,90.31
2023-03-27T23:03:11.307Z,90.50
2023-03-27T23:05:49.206Z,90.77
2023-03-27T23:08:27.431Z,90.87
2023-03-27T23:11:02.829Z,91.12
2023-03-27T23:13:33.526Z,91.09
2023-03-27T23:16:04.774Z,91.27
2023-03-27T23:18:45.690Z,91.26
2023-03-27T23:21:18.087Z,91.28
2023-03-27T23:23:53.990Z,91.72
2023-03-27T23:26:30.316Z,91.70
2023-03-27T23:29:04.766Z,91.75
2023-03-27T23:31:37.863Z,92.00
2023-03-27T23:34:12.211Z,92.25
2023-03-27T23:36:46.037Z,92.13
2023-03-27T23:39:17.280Z,92.05
2023-03-27T23:41:48.475Z,91.95
2023-03-27T23:44:17.769Z,91.75
2023-03-27T23:46:46.297Z,91.82
2023-03-27T23:49:17.378Z,92.21
2023-03-27T23:51:49.007Z,92.59
2023-03-27T23:54:17.513Z,92.28
2023-03-27T23:56:51.909Z,91.79
2023-03-27T23:59:21.002Z,91.99
